createdAt,value
2022-10-19T00:01:06.624Z,4.57
2022-10-19T00:03:34.403Z,7.32
2022-10-19T00:06:09.821Z,7.70
2022-10-19T00:08:36.202Z,6.13
2022-10-19T00:11:02.642Z,5.85
2022-10-19T00:13:29.027Z,4.72
2022-10-19T00:15:55.438Z,4.97
2022-10-19T00:18:22.298Z,11.15
2022-10-19T00:20:48.683Z,4.70
2022-10-19T00:23:15.238Z,7.90
2022-10-19T00:25:41.645Z,10.27
2022-10-19T00:28:08.223Z,8.18
2022-10-19T00:30:38.314Z,8.13
2022-10-19T00:33:04.799Z,9.57
2022-10-19T00:35:31.195Z,7.13
2022-10-19T00:37:57.638Z,9.98
2022-10-19T00:40:24.091Z,10.20
2022-10-19T00:42:55.134Z,8.57
2022-10-19T00:45:21.718Z,7.40
2022-10-19T00:47:48.526Z,7.28
2022-10-19T00:50:15.647Z,7.35
2022-10-19T00:52:42.407Z,5.32
2022-10-19T00:55:10.979Z,7.90
2022-10-19T00:57:37.762Z,7.60
2022-10-19T01:00:07.233Z,7.07
2022-10-19T01:02:34.294Z,7.57
2022-10-19T01:05:01.260Z,9.00
2022-10-19T01:07:28.304Z,8.07
2022-10-19T01:09:55.826Z,7.90
2022-10-19T01:12:43.603Z,9.35
2022-10-19T01:15:26.414Z,6.00
2022-10-19T01:18:01.131Z,7.50
2022-10-19T01:20:54.684Z,10.20
2022-10-19T01:24:03.487Z,10.13
2022-10-19T01:26:53.296Z,8.95
2022-10-19T01:29:57.378Z,8.73
2022-10-19T01:32:32.480Z,7.55
2022-10-19T01:35:20.148Z,7.30
2022-10-19T01:37:52.700Z,8.40
2022-10-19T01:40:37.750Z,8.93
2022-10-19T01:43:26.116Z,10.25
2022-10-19T01:45:56.565Z,11.23
2022-10-19T01:48:30.599Z,10.20
2022-10-19T01:51:05.183Z,7.05
2022-10-19T01:53:36.514Z,7.93
2022-10-19T01:56:05.215Z,5.35
2022-10-19T01:58:35.576Z,7.90
2022-10-19T02:01:05.506Z,6.90
2022-10-19T02:03:34.387Z,7.53
2022-10-19T02:06:04.959Z,5.75
2022-10-19T02:08:41.500Z,7.57
2022-10-19T02:11:08.225Z,6.10
2022-10-19T02:13:36.178Z,10.85
2022-10-19T02:16:07.924Z,8.10
2022-10-19T02:18:39.574Z,8.38
2022-10-19T02:21:07.136Z,8.32
2022-10-19T02:23:34.131Z,7.28
2022-10-19T02:26:00.737Z,7.07
2022-10-19T02:28:28.355Z,6.30
2022-10-19T02:30:54.987Z,9.68
2022-10-19T02:33:21.665Z,6.38
2022-10-19T02:35:48.307Z,6.82
2022-10-19T02:38:18.688Z,6.50
2022-10-19T02:40:54.841Z,11.65
2022-10-19T02:43:24.506Z,6.18
2022-10-19T02:46:02.671Z,8.52
2022-10-19T02:48:32.717Z,6.60
2022-10-19T02:50:59.285Z,7.25
2022-10-19T02:53:25.822Z,8.40
2022-10-19T02:55:52.606Z,8.43
2022-10-19T02:58:19.192Z,7.25
2022-10-19T03:00:45.777Z,8.77
2022-10-19T03:03:12.518Z,7.47
2022-10-19T03:05:39.080Z,7.93
2022-10-19T03:08:05.510Z,9.73
2022-10-19T03:10:32.070Z,9.88
2022-10-19T03:12:58.650Z,9.50
2022-10-19T03:15:28.994Z,12.43
2022-10-19T03:17:55.966Z,7.15
2022-10-19T03:20:22.610Z,5.68
2022-10-19T03:22:49.430Z,9.38
2022-10-19T03:25:16.163Z,6.13
2022-10-19T03:27:42.731Z,9.88
2022-10-19T03:30:09.617Z,7.80
2022-10-19T03:32:36.142Z,11.32
2022-10-19T03:35:02.702Z,9.13
2022-10-19T03:37:29.244Z,10.38
2022-10-19T03:39:55.836Z,9.65
2022-10-19T03:42:22.360Z,9.43
2022-10-19T03:44:48.996Z,7.05
2022-10-19T03:47:15.537Z,8.65
2022-10-19T03:49:43.537Z,10.27
2022-10-19T03:52:10.246Z,9.18
2022-10-19T03:54:37.055Z,10.23
2022-10-19T03:57:03.739Z,12.45
2022-10-19T03:59:30.361Z,9.20
2022-10-19T04:01:56.996Z,10.07
2022-10-19T04:04:23.546Z,10.02
2022-10-19T04:06:50.890Z,7.40
2022-10-19T04:09:19.554Z,12.30
2022-10-19T04:11:46.488Z,11.88
2022-10-19T04:14:22.752Z,9.30
2022-10-19T04:16:58.949Z,11.52
2022-10-19T04:19:25.411Z,13.07
2022-10-19T04:21:51.832Z,8.55
2022-10-19T04:24:19.250Z,14.25
2022-10-19T04:26:49.575Z,10.02
2022-10-19T04:29:18.912Z,10.68
2022-10-19T04:31:45.605Z,8.80
2022-10-19T04:34:12.359Z,9.05
2022-10-19T04:36:38.833Z,10.82
2022-10-19T04:39:06.211Z,10.38
2022-10-19T04:41:33.233Z,11.23
2022-10-19T04:44:02.184Z,7.85
2022-10-19T04:46:29.846Z,15.10
2022-10-19T04:48:57.154Z,10.10
2022-10-19T04:51:24.875Z,8.75
2022-10-19T04:53:52.501Z,6.97
2022-10-19T04:56:23.763Z,8.57
2022-10-19T04:58:50.158Z,10.25
2022-10-19T05:01:21.410Z,9.10
2022-10-19T05:03:52.477Z,8.45
2022-10-19T05:06:18.897Z,6.53
2022-10-19T05:08:45.293Z,10.50
2022-10-19T05:11:14.301Z,10.18
2022-10-19T05:13:41.828Z,4.95
2022-10-19T05:16:12.192Z,6.07
2022-10-19T05:18:39.209Z,7.15
2022-10-19T05:21:07.345Z,5.47
2022-10-19T05:23:34.580Z,9.18
2022-10-19T05:26:07.024Z,5.38
2022-10-19T05:28:34.271Z,7.80
2022-10-19T05:31:11.408Z,4.50
2022-10-19T05:33:38.911Z,4.45
2022-10-19T05:36:13.675Z,10.70
2022-10-19T05:38:40.108Z,7.40
2022-10-19T05:41:06.686Z,5.93
2022-10-19T05:43:33.360Z,6.43
2022-10-19T05:46:08.031Z,8.68
2022-10-19T05:48:35.040Z,6.80
2022-10-19T05:51:02.846Z,4.18
2022-10-19T05:53:29.708Z,6.28
2022-10-19T05:55:56.176Z,7.85
2022-10-19T05:58:23.147Z,6.43
2022-10-19T06:00:54.767Z,6.75
2022-10-19T06:03:22.257Z,7.97
2022-10-19T06:05:49.886Z,7.45
2022-10-19T06:08:17.454Z,8.55
2022-10-19T06:10:44.569Z,10.30
2022-10-19T06:13:11.825Z,5.55
2022-10-19T06:15:40.125Z,7.03
2022-10-19T06:18:08.576Z,10.68
2022-10-19T06:20:40.169Z,10.30
2022-10-19T06:23:07.394Z,9.18
2022-10-19T06:25:35.511Z,7.80
2022-10-19T06:28:02.197Z,5.82
2022-10-19T06:30:28.829Z,7.43
2022-10-19T06:32:55.446Z,8.82
2022-10-19T06:35:22.066Z,4.68
2022-10-19T06:37:48.527Z,9.45
2022-10-19T06:40:15.167Z,11.63
2022-10-19T06:42:41.854Z,12.23
2022-10-19T06:45:09.660Z,8.30
2022-10-19T06:47:37.634Z,9.93
2022-10-19T06:50:05.539Z,6.13
2022-10-19T06:52:33.230Z,11.02
2022-10-19T06:54:59.883Z,8.35
2022-10-19T06:57:26.622Z,11.00
2022-10-19T06:59:53.768Z,7.10
2022-10-19T07:02:20.900Z,9.10
2022-10-19T07:04:47.414Z,6.68
2022-10-19T07:07:13.922Z,8.68
2022-10-19T07:09:40.394Z,10.45
2022-10-19T07:12:06.959Z,8.25
2022-10-19T07:14:38.559Z,7.82
2022-10-19T07:17:08.329Z,6.15
2022-10-19T07:19:34.899Z,5.10
2022-10-19T07:22:01.643Z,7.50
2022-10-19T07:24:28.479Z,7.18
2022-10-19T07:26:55.827Z,6.85
2022-10-19T07:29:22.499Z,6.22
2022-10-19T07:31:49.517Z,7.43
2022-10-19T07:34:16.999Z,8.63
2022-10-19T07:36:48.259Z,10.35
2022-10-19T07:39:19.508Z,7.85
2022-10-19T07:41:47.433Z,8.25
2022-10-19T07:44:15.892Z,10.45
2022-10-19T07:46:43.063Z,10.68
2022-10-19T07:49:19.058Z,9.15
2022-10-19T07:51:46.854Z,10.48
2022-10-19T07:54:13.729Z,7.50
2022-10-19T07:56:40.457Z,9.82
2022-10-19T07:59:07.001Z,8.32
2022-10-19T08:01:38.290Z,7.78
2022-10-19T08:06:51.406Z,9.63
2022-10-19T08:09:50.965Z,8.43
2022-10-19T08:12:05.889Z,7.47
2022-10-19T08:14:32.678Z,9.57
2022-10-19T08:17:00.196Z,9.40
2022-10-19T08:19:26.832Z,8.30
2022-10-19T08:21:53.407Z,10.27
2022-10-19T08:24:20.746Z,9.70
2022-10-19T08:26:47.589Z,9.40
2022-10-19T08:29:17.041Z,7.85
2022-10-19T08:31:44.870Z,10.15
2022-10-19T08:34:12.685Z,9.98
2022-10-19T08:36:39.481Z,10.52
2022-10-19T08:39:08.198Z,11.27
2022-10-19T08:41:41.032Z,11.55
2022-10-19T08:44:19.967Z,10.05
2022-10-19T08:46:56.263Z,17.83
2022-10-19T08:49:25.789Z,14.57
2022-10-19T08:52:00.713Z,15.02
2022-10-19T08:54:56.601Z,9.13
2022-10-19T08:57:50.518Z,12.15
2022-10-19T09:00:59.180Z,9.30
2022-10-19T09:03:54.520Z,10.23
2022-10-19T09:06:37.540Z,9.02
2022-10-19T09:09:05.827Z,11.23
2022-10-19T09:11:37.704Z,10.98
2022-10-19T09:14:13.749Z,8.05
2022-10-19T09:16:40.149Z,12.20
2022-10-19T09:19:21.900Z,14.13
2022-10-19T09:22:16.825Z,11.40
2022-10-19T09:24:50.843Z,11.98
2022-10-19T09:27:20.725Z,14.30
2022-10-19T09:29:58.422Z,11.10
2022-10-19T09:32:37.349Z,12.07
2022-10-19T09:35:14.843Z,11.93
2022-10-19T09:37:46.867Z,10.23
2022-10-19T09:40:20.486Z,10.73
2022-10-19T09:42:50.991Z,10.82
2022-10-19T09:45:32.109Z,11.75
2022-10-19T09:48:07.209Z,9.95
2022-10-19T09:50:43.476Z,15.35
2022-10-19T09:53:19.291Z,11.90
2022-10-19T09:55:51.167Z,8.50
2022-10-19T09:58:19.555Z,11.45
2022-10-19T10:00:50.488Z,11.45
2022-10-19T10:03:40.773Z,9.70
2022-10-19T10:06:10.029Z,9.82
2022-10-19T10:08:44.322Z,11.98
2022-10-19T10:11:25.285Z,12.82
2022-10-19T10:13:54.377Z,10.13
2022-10-19T10:16:24.079Z,8.52
2022-10-19T10:19:06.874Z,11.35
2022-10-19T10:21:45.393Z,12.50
2022-10-19T10:24:11.771Z,13.88
2022-10-19T10:26:44.187Z,10.88
2022-10-19T10:29:39.423Z,14.05
2022-10-19T10:32:07.504Z,8.25
2022-10-19T10:34:51.787Z,8.65
2022-10-19T10:37:24.257Z,8.07
2022-10-19T10:39:57.896Z,12.65
2022-10-19T10:42:44.727Z,7.63
2022-10-19T10:45:31.283Z,10.63
2022-10-19T10:48:14.857Z,11.65
2022-10-19T10:50:41.502Z,7.37
2022-10-19T10:53:35.446Z,9.43
2022-10-19T10:56:02.471Z,10.63
2022-10-19T10:58:38.169Z,10.25
2022-10-19T11:01:13.572Z,10.88
2022-10-19T11:03:46.148Z,12.07
2022-10-19T11:06:14.693Z,9.90
2022-10-19T11:08:52.211Z,10.98
2022-10-19T11:11:24.763Z,10.88
2022-10-19T11:13:57.359Z,11.43
2022-10-19T11:16:30.576Z,8.38
2022-10-19T11:19:07.280Z,8.97
2022-10-19T11:22:08.964Z,6.70
2022-10-19T11:24:49.775Z,9.55
2022-10-19T11:27:37.878Z,8.20
2022-10-19T11:30:12.547Z,9.60
2022-10-19T11:32:56.952Z,5.82
2022-10-19T11:35:36.515Z,7.10
2022-10-19T11:38:24.168Z,6.97
2022-10-19T11:41:18.195Z,9.13
2022-10-19T11:44:13.225Z,8.85
2022-10-19T11:47:08.063Z,11.02
2022-10-19T11:52:32.934Z,7.30
2022-10-19T11:55:12.119Z,7.80
2022-10-19T11:57:48.110Z,7.03
2022-10-19T12:00:37.539Z,8.00
2022-10-19T12:03:23.643Z,7.30
2022-10-19T12:06:15.054Z,7.28
2022-10-19T12:08:55.234Z,5.05
2022-10-19T12:11:27.641Z,5.45
2022-10-19T12:14:02.793Z,9.48
2022-10-19T12:16:42.913Z,10.45
2022-10-19T12:19:19.370Z,9.38
2022-10-19T12:21:46.476Z,7.65
2022-10-19T12:24:20.281Z,8.00
2022-10-19T12:26:47.792Z,10.98
2022-10-19T12:29:21.708Z,5.82
2022-10-19T12:31:49.280Z,4.72
2022-10-19T12:34:31.481Z,8.95
2022-10-19T12:37:34.263Z,8.20
2022-10-19T12:40:13.341Z,10.93
2022-10-19T12:42:52.753Z,9.20
2022-10-19T12:45:28.519Z,9.15
2022-10-19T12:48:14.329Z,8.50
2022-10-19T12:50:50.119Z,12.43
2022-10-19T12:53:34.517Z,8.88
2022-10-19T12:56:02.186Z,7.20
2022-10-19T12:58:41.552Z,5.85
2022-10-19T13:01:21.201Z,8.60
2022-10-19T13:03:51.188Z,10.13
2022-10-19T13:06:23.681Z,8.73
2022-10-19T13:08:53.093Z,8.63
2022-10-19T13:11:20.305Z,6.38
2022-10-19T13:14:05.405Z,9.50
2022-10-19T13:16:37.677Z,8.23
2022-10-19T13:19:13.188Z,5.35
2022-10-19T13:21:45.760Z,8.90
2022-10-19T13:24:26.864Z,4.57
2022-10-19T13:27:02.634Z,6.60
2022-10-19T13:29:41.210Z,6.85
2022-10-19T13:32:36.716Z,11.18
2022-10-19T13:35:25.036Z,8.38
2022-10-19T13:38:10.217Z,6.65
2022-10-19T13:40:58.592Z,5.68
2022-10-19T13:43:29.345Z,10.13
2022-10-19T13:46:11.248Z,4.15
2022-10-19T13:48:40.716Z,7.50
2022-10-19T13:51:33.428Z,8.55
2022-10-19T13:54:26.240Z,9.10
2022-10-19T13:57:15.082Z,5.97
2022-10-19T13:59:54.886Z,4.90
2022-10-19T14:02:33.659Z,6.95
2022-10-19T14:05:12.396Z,7.78
2022-10-19T14:08:17.786Z,6.13
2022-10-19T14:11:00.679Z,5.68
2022-10-19T14:13:28.501Z,7.13
2022-10-19T14:15:57.756Z,6.93
2022-10-19T14:18:28.065Z,6.85
2022-10-19T14:21:02.229Z,3.97
2022-10-19T14:26:03.336Z,7.85
2022-10-19T14:28:30.785Z,5.70
2022-10-19T14:31:00.808Z,5.32
2022-10-19T14:33:29.746Z,6.82
2022-10-19T14:35:58.332Z,7.00
2022-10-19T14:38:43.478Z,6.15
2022-10-19T14:41:28.159Z,6.28
2022-10-19T14:43:56.560Z,5.10
2022-10-19T14:46:31.985Z,5.82
2022-10-19T14:49:02.540Z,5.43
2022-10-19T14:51:54.771Z,5.07
2022-10-19T14:54:38.864Z,6.97
2022-10-19T14:57:26.407Z,4.55
2022-10-19T15:00:03.167Z,5.10
2022-10-19T15:02:59.865Z,3.92
2022-10-19T15:05:36.088Z,5.70
2022-10-19T15:08:14.769Z,4.05
2022-10-19T15:10:45.677Z,5.47
2022-10-19T15:13:25.136Z,6.35
2022-10-19T15:15:53.538Z,2.72
2022-10-19T15:18:43.956Z,3.22
2022-10-19T15:21:20.004Z,2.45
2022-10-19T15:23:49.040Z,4.03
2022-10-19T15:26:24.335Z,5.13
2022-10-19T15:28:52.047Z,3.72
2022-10-19T15:31:27.515Z,3.80
2022-10-19T15:33:58.945Z,4.25
2022-10-19T15:36:27.436Z,4.10
2022-10-19T15:39:18.073Z,4.47
2022-10-19T15:41:51.478Z,3.38
2022-10-19T15:44:50.167Z,4.82
2022-10-19T15:47:18.046Z,4.88
2022-10-19T15:49:44.642Z,4.22
2022-10-19T15:52:19.245Z,4.85
2022-10-19T15:54:53.011Z,4.00
2022-10-19T15:57:35.907Z,4.78
2022-10-19T16:00:13.244Z,4.55
2022-10-19T16:02:39.750Z,6.85
2022-10-19T16:07:40.116Z,4.18
2022-10-19T16:10:08.176Z,3.78
2022-10-19T16:12:34.655Z,5.75
2022-10-19T16:15:01.185Z,4.60
2022-10-19T16:17:27.720Z,5.47
2022-10-19T16:19:54.245Z,4.30
2022-10-19T16:22:20.825Z,6.35
2022-10-19T16:24:47.288Z,6.03
2022-10-19T16:27:17.020Z,4.65
2022-10-19T16:29:44.568Z,5.38
2022-10-19T16:32:11.330Z,5.68
2022-10-19T16:34:38.142Z,6.22
2022-10-19T16:37:06.863Z,5.00
2022-10-19T16:39:34.209Z,6.47
2022-10-19T16:42:00.679Z,11.20
2022-10-19T16:44:27.377Z,5.75
2022-10-19T16:46:56.716Z,6.75
2022-10-19T16:49:23.405Z,8.02
2022-10-19T16:51:53.249Z,6.72
2022-10-19T16:54:23.292Z,7.85
2022-10-19T16:56:49.886Z,9.18
2022-10-19T16:59:18.416Z,8.85
2022-10-19T17:01:46.422Z,6.63
2022-10-19T17:04:15.182Z,8.55
2022-10-19T17:06:42.157Z,7.22
2022-10-19T17:09:40.815Z,6.82
2022-10-19T17:11:55.788Z,8.23
2022-10-19T17:14:22.302Z,7.78
2022-10-19T17:16:48.886Z,8.77
2022-10-19T17:19:15.452Z,8.80
2022-10-19T17:21:42.488Z,7.68
2022-10-19T17:24:18.651Z,6.07
2022-10-19T17:26:49.474Z,7.57
2022-10-19T17:29:16.092Z,10.55
2022-10-19T17:31:42.788Z,8.25
2022-10-19T17:34:09.865Z,7.60
2022-10-19T17:39:25.708Z,8.65
2022-10-19T17:41:57.502Z,6.80
2022-10-19T17:44:24.100Z,6.13
2022-10-19T17:46:50.718Z,8.18
2022-10-19T17:49:18.719Z,5.43
2022-10-19T17:51:45.260Z,7.15
2022-10-19T17:54:13.626Z,5.45
2022-10-19T17:56:41.156Z,6.93
2022-10-19T17:59:09.010Z,6.72
2022-10-19T18:01:37.143Z,5.43
2022-10-19T18:04:04.593Z,5.47
2022-10-19T18:06:33.548Z,11.10
2022-10-19T18:09:01.792Z,5.15
2022-10-19T18:11:38.684Z,6.20
2022-10-19T18:14:07.937Z,7.28
2022-10-19T18:16:37.656Z,7.20
2022-10-19T18:19:06.018Z,6.45
2022-10-19T18:21:41.081Z,7.53
2022-10-19T18:24:15.143Z,5.65
2022-10-19T18:26:43.035Z,4.15
2022-10-19T18:29:16.490Z,4.90
2022-10-19T18:31:44.043Z,6.20
2022-10-19T18:34:14.978Z,7.05
2022-10-19T18:36:41.705Z,6.85
2022-10-19T18:39:08.521Z,7.93
2022-10-19T18:41:35.022Z,5.10
2022-10-19T18:44:05.123Z,5.93
2022-10-19T18:46:36.520Z,6.05
2022-10-19T18:49:06.739Z,6.57
2022-10-19T18:51:33.557Z,6.90
2022-10-19T18:54:00.090Z,7.07
2022-10-19T18:56:29.335Z,11.35
2022-10-19T18:58:56.765Z,10.93
2022-10-19T19:01:26.757Z,8.32
2022-10-19T19:03:55.946Z,7.10
2022-10-19T19:06:33.642Z,8.20
2022-10-19T19:09:01.735Z,8.88
2022-10-19T19:11:37.091Z,7.45
2022-10-19T19:14:17.091Z,6.18
2022-10-19T19:16:44.915Z,7.80
2022-10-19T19:19:13.311Z,7.00
2022-10-19T19:21:44.372Z,7.75
2022-10-19T19:24:14.526Z,4.85
2022-10-19T19:26:46.670Z,4.82
2022-10-19T19:29:13.429Z,5.47
2022-10-19T19:31:40.131Z,4.72
2022-10-19T19:34:09.749Z,5.05
2022-10-19T19:36:38.130Z,3.95
2022-10-19T19:39:05.206Z,5.40
2022-10-19T19:41:34.117Z,4.78
2022-10-19T19:44:00.732Z,4.18
2022-10-19T19:46:27.324Z,3.97
2022-10-19T19:49:06.756Z,5.55
2022-10-19T19:51:33.791Z,3.28
2022-10-19T19:54:00.487Z,5.50
2022-10-19T19:56:27.170Z,4.63
2022-10-19T19:58:56.140Z,3.65
2022-10-19T20:01:23.127Z,5.55
2022-10-19T20:03:49.717Z,4.47
2022-10-19T20:06:22.037Z,5.00
2022-10-19T20:08:51.835Z,3.70
2022-10-19T20:11:18.426Z,6.90
2022-10-19T20:13:45.700Z,4.60
2022-10-19T20:16:26.705Z,4.70
2022-10-19T20:19:00.919Z,5.35
2022-10-19T20:21:27.699Z,5.15
2022-10-19T20:23:54.201Z,7.22
2022-10-19T20:26:23.991Z,6.85
2022-10-19T20:28:51.506Z,5.32
2022-10-19T20:31:18.321Z,4.60
2022-10-19T20:33:47.261Z,6.43
2022-10-19T20:36:19.802Z,7.05
2022-10-19T20:38:57.798Z,6.50
2022-10-19T20:41:27.660Z,5.50
2022-10-19T20:43:55.516Z,4.72
2022-10-19T20:46:27.557Z,4.97
2022-10-19T20:49:02.605Z,3.97
2022-10-19T20:51:47.771Z,4.88
2022-10-19T20:54:14.493Z,5.65
2022-10-19T20:56:42.033Z,5.38
2022-10-19T20:59:16.823Z,4.68
2022-10-19T21:01:44.927Z,4.43
2022-10-19T21:04:13.911Z,5.28
2022-10-19T21:06:45.718Z,4.35
2022-10-19T21:09:18.889Z,4.50
2022-10-19T21:11:47.421Z,4.78
2022-10-19T21:14:28.314Z,7.07
2022-10-19T21:17:00.050Z,3.70
2022-10-19T21:19:29.164Z,5.07
2022-10-19T21:22:01.555Z,3.25
2022-10-19T21:24:35.671Z,4.90
2022-10-19T21:27:05.681Z,5.65
2022-10-19T21:29:32.334Z,5.72
2022-10-19T21:31:59.060Z,7.20
2022-10-19T21:34:28.110Z,8.20
2022-10-19T21:36:55.578Z,5.18
2022-10-19T21:39:36.356Z,5.20
2022-10-19T21:42:03.076Z,4.97
2022-10-19T21:44:29.634Z,5.18
2022-10-19T21:46:56.280Z,8.18
2022-10-19T21:49:22.878Z,5.43
2022-10-19T21:51:53.885Z,4.53
2022-10-19T21:54:26.470Z,4.78
2022-10-19T21:56:53.567Z,6.00
2022-10-19T21:59:20.210Z,9.02
2022-10-19T22:01:46.913Z,4.70
2022-10-19T22:04:16.035Z,6.03
2022-10-19T22:06:43.414Z,6.03
2022-10-19T22:09:13.915Z,5.45
2022-10-19T22:11:40.730Z,6.05
2022-10-19T22:14:07.759Z,7.65
2022-10-19T22:16:36.728Z,7.30
2022-10-19T22:19:05.067Z,6.00
2022-10-19T22:21:33.726Z,5.60
2022-10-19T22:24:06.601Z,6.18
2022-10-19T22:26:39.398Z,5.47
2022-10-19T22:29:07.159Z,5.95
2022-10-19T22:31:34.845Z,4.82
2022-10-19T22:34:03.693Z,6.95
2022-10-19T22:36:30.402Z,6.95
2022-10-19T22:38:57.015Z,7.10
2022-10-19T22:41:23.580Z,7.55
2022-10-19T22:43:50.107Z,6.10
2022-10-19T22:46:16.678Z,7.00
2022-10-19T22:48:43.702Z,4.88
2022-10-19T22:51:10.303Z,5.47
2022-10-19T22:53:36.873Z,5.90
2022-10-19T22:56:04.131Z,5.90
2022-10-19T22:58:30.828Z,5.20
2022-10-19T23:01:15.200Z,5.25
2022-10-19T23:06:11.016Z,7.15
2022-10-19T23:08:38.039Z,5.63
2022-10-19T23:11:05.187Z,5.38
2022-10-19T23:13:31.878Z,5.50
2022-10-19T23:15:58.422Z,5.70
2022-10-19T23:18:25.206Z,6.82
2022-10-19T23:20:57.407Z,6.15
2022-10-19T23:23:24.757Z,4.60
2022-10-19T23:26:01.329Z,5.30
2022-10-19T23:28:29.464Z,5.10
2022-10-19T23:30:59.018Z,5.65
2022-10-19T23:33:26.275Z,7.25
2022-10-19T23:35:52.934Z,7.93
2022-10-19T23:38:19.455Z,7.25
2022-10-19T23:40:46.203Z,5.60
2022-10-19T23:43:12.905Z,5.97
2022-10-19T23:45:39.618Z,8.35
2022-10-19T23:48:06.456Z,5.82
2022-10-19T23:50:33.077Z,6.63
2022-10-19T23:52:59.624Z,7.13
2022-10-19T23:55:26.389Z,5.70
2022-10-19T23:57:52.886Z,6.68
